Latest Weather Observations for Cape Otway

IDV60801

Issued at 11:02 pm EST Friday 16 April 2021 (issued every 10 minutes, with the page automatically refreshed every 10 minutes)

About weather observations | Map of weather stations | Latest weather observations for VIC | Other Formats
Station Details ID: 090015 Name: CAPE OTWAY LIGHTHOUSE Lat: -38.86 Lon: 143.51 Height: 82.0 m
Data from the previous 72 hours. | See also: Recent months at Cape Otway
Date/Time
EST
Temp
°C
App
Temp
°C
Dew
Point
°C
Rel
Hum
%
Delta-T
°C
Wind Press
QNH
hPa
Press
MSL
hPa
Rain since
9am
mm
Dir  Spd
km/h
Gust
km/h
Spd
kts
Gust
kts
16/11:00pm 13.4 8.8 5.8 60 3.6 W 19 24 10 13 1024.8 1024.8 0.0
16/10:30pm 13.3 8.5 5.5 59 3.7 W 20 32 11 17 1025.0 1025.0 0.0
16/10:00pm 13.5 8.5 6.4 62 3.4 W 22 33 12 18 1024.8 1024.8 0.0
16/09:30pm 13.4 9.0 7.2 66 3.0 W 20 28 11 15 1024.9 1024.9 0.0
16/09:00pm 13.4 8.8 6.5 63 3.3 WSW 20 30 11 16 1024.8 1024.8 0.0
16/08:30pm 13.2 8.4 4.9 57 3.9 W 19 30 10 16 1024.9 1024.9 0.0
16/08:00pm 13.2 7.4 4.6 56 3.9 WSW 24 35 13 19 1025.1 1025.1 0.0
16/07:30pm 13.3 8.6 6.2 62 3.4 WSW 20 30 11 16 1024.9 1024.9 0.0
16/07:00pm 13.2 8.3 6.8 65 3.1 WSW 22 32 12 17 1024.8 1024.8 0.0
16/06:30pm 13.1 8.8 5.3 59 3.6 WNW 17 24 9 13 1024.6 1024.6 0.0
16/06:00pm 13.0 8.8 5.7 61 3.4 W 17 28 9 15 1024.4 1024.4 0.0
16/05:30pm 12.9 8.9 6.5 65 3.1 WSW 17 24 9 13 1024.3 1024.3 0.0
16/05:00pm 13.1 8.4 6.0 62 3.4 W 20 28 11 15 1024.2 1024.2 0.0
16/04:30pm 13.3 8.2 6.2 62 3.4 WSW 22 30 12 16 1024.1 1024.1 0.0
16/04:00pm 13.2 9.1 6.1 62 3.4 W 17 28 9 15 1024.2 1024.2 0.0
16/03:30pm 13.2 8.7 7.0 66 3.0 SW 20 30 11 16 1024.1 1024.1 0.0
16/03:00pm 13.7 9.2 6.3 61 3.5 WSW 19 24 10 13 1024.1 1024.1 0.0
16/02:30pm 13.6 9.6 6.5 62 3.4 WSW 17 24 9 13 1024.1 1024.1 0.0
16/02:00pm 13.9 10.4 5.5 57 4.0 WSW 13 20 7 11 1024.0 1024.0 0.0
16/01:30pm 13.7 10.2 5.3 57 3.9 WSW 13 20 7 11 1024.3 1024.3 0.0
16/01:00pm 13.7 9.3 4.8 55 4.1 WSW 17 24 9 13 1024.5 1024.5 0.0
16/12:30pm 13.5 9.2 5.4 58 3.8 WSW 17 26 9 14 1024.7 1024.7 0.0
16/12:00pm 13.3 9.1 5.9 61 3.5 WSW 17 30 9 16 1024.9 1024.9 0.0
16/11:30am 13.6 9.4 5.5 58 3.8 WSW 17 30 9 16 1025.0 1025.0 0.0
16/11:00am 13.2 8.6 5.4 59 3.6 WSW 19 28 10 15 1024.8 1024.8 0.0
16/10:30am 12.7 8.2 6.1 64 3.1 SW 19 28 10 15 1024.7 1024.7 0.0
16/10:00am 12.9 8.3 6.3 64 3.1 WSW 20 33 11 18 1024.6 1024.6 0.0
16/09:30am 12.9 8.5 4.8 58 3.7 SW 17 30 9 16 1024.5 1024.5 0.0
16/09:00am 12.7 7.6 4.2 56 3.8 SSW 20 32 11 17 1024.3 1024.3 3.4
16/08:30am 12.7 7.9 5.6 62 3.3 SW 20 30 11 16 1023.9 1023.9 3.4
16/08:00am 12.6 7.1 3.8 55 3.9 SW 22 37 12 20 1023.4 1023.4 3.4
16/07:30am 12.6 7.2 6.2 65 3.0 SW 24 35 13 19 1022.8 1022.8 3.4
16/07:00am 12.6 6.8 4.6 58 3.7 SW 24 33 13 18 1022.4 1022.4 3.4
16/06:30am 12.5 7.3 3.7 55 4.0 SSW 20 30 11 16 1022.3 1022.3 3.4
16/06:00am 12.6 8.2 4.8 59 3.6 SW 17 30 9 16 1022.1 1022.0 3.4
16/05:30am 12.4 6.3 4.6 59 3.6 SW 26 37 14 20 1021.9 1021.8 3.4
16/05:00am 12.6 7.0 5.3 61 3.4 SSW 24 41 13 22 1021.6 1021.5 3.4
16/04:30am 12.3 6.2 4.8 60 3.4 SSW 26 37 14 20 1021.5 1021.4 3.4
16/04:00am 12.6 6.1 4.8 59 3.6 SSW 28 41 15 22 1021.2 1021.1 3.4
16/03:30am 12.8 5.5 4.5 57 3.8 SW 32 43 17 23 1020.8 1020.7 3.4
16/03:00am 12.6 6.8 6.2 65 3.0 SSW 26 41 14 22 1020.7 1020.6 3.4
16/02:30am 12.2 6.6 7.3 72 2.4 SW 26 39 14 21 1020.9 1020.8 3.4
16/02:08am 13.1 6.3 6.9 66 3.0 SW 32 50 17 27 1020.6 1020.5 3.4
16/02:00am 12.8 6.5 5.7 62 3.3 SW 28 39 15 21 1020.6 1020.5 3.4
16/01:40am 12.7 5.5 5.8 63 3.3 SSW 33 54 18 29 1020.4 1020.3 3.4
16/01:30am 12.7 5.8 7.2 69 2.7 SSW 33 44 18 24 1020.3 1020.2 3.4
16/01:00am 12.7 4.9 6.5 66 3.0 SW 37 48 20 26 1020.2 1020.1 3.4
16/12:30am 12.9 4.6 6.3 64 3.1 SW 39 50 21 27 1019.9 1019.8 3.4
16/12:00am 13.1 4.6 6.9 66 3.0 SW 41 54 22 29 1019.7 1019.6 3.4
 
Date/Time
EST
Temp
°C
App
Temp
°C
Dew
Point
°C
Rel
Hum
%
Delta-T
°C
Wind Press
QNH
hPa
Press
MSL
hPa
Rain since
9am
mm
Dir  Spd
km/h
Gust
km/h
Spd
kts
Gust
kts
15/11:50pm 13.1 5.1 7.3 68 2.8 SW 39 57 21 31 1019.6 1019.5 3.4
15/11:30pm 13.4 5.3 5.3 58 3.8 WSW 37 50 20 27 1019.4 1019.3 3.4
15/11:00pm 13.1 4.8 6.0 62 3.4 SW 39 57 21 31 1019.2 1019.1 3.4
15/10:34pm 13.0 5.7 7.2 68 2.8 SW 35 54 19 29 1019.2 1019.1 3.4
15/10:30pm 12.9 5.8 8.0 72 2.4 SW 35 46 19 25 1019.3 1019.2 3.4
15/10:00pm 13.0 5.6 8.3 73 2.3 SW 37 48 20 26 1019.1 1019.0 3.4
15/09:42pm 13.0 6.5 9.1 77 2.0 WSW 33 52 18 28 1019.0 1018.9 3.4
15/09:30pm 13.0 4.9 8.7 75 2.2 SW 41 56 22 30 1018.8 1018.7 3.4
15/09:20pm 13.2 5.8 8.3 72 2.4 SW 37 54 20 29 1018.7 1018.6 3.4
15/09:00pm 13.5 6.9 6.1 61 3.5 WSW 30 44 16 24 1018.6 1018.5 3.4
15/08:30pm 13.5 6.1 5.2 57 3.9 WSW 33 52 18 28 1018.3 1018.2 3.4
15/08:00pm 13.6 4.2 4.2 53 4.3 WSW 43 61 23 33 1017.7 1017.6 3.4
15/07:36pm 13.6 4.5 6.7 63 3.3 SW 44 63 24 34 1017.4 1017.3 3.4
15/07:30pm 13.7 4.3 7.2 65 3.2 SW 46 61 25 33 1017.3 1017.2 3.4
15/07:18pm 13.7 4.8 7.0 64 3.3 SW 43 63 23 34 1017.1 1017.0 3.4
15/07:00pm 13.8 4.9 7.8 67 3.0 SW 44 59 24 32 1016.9 1016.8 3.4
15/06:41pm 13.6 5.0 8.0 69 2.8 SW 43 63 23 34 1016.5 1016.4 3.4
15/06:30pm 13.8 5.1 8.4 70 2.7 SW 44 59 24 32 1016.4 1016.3 3.4
15/06:00pm 13.8 7.2 10.0 78 2.0 WSW 35 48 19 26 1015.9 1015.8 3.4
15/05:41pm 13.8 7.0 10.6 81 1.7 SW 37 56 20 30 1015.6 1015.5 3.4
15/05:30pm 14.1 6.9 10.5 79 1.9 WSW 39 54 21 29 1015.5 1015.4 3.4
15/05:00pm 14.0 7.5 10.2 78 2.0 WSW 35 54 19 29 1014.9 1014.9 3.4
15/04:56pm 14.4 8.0 10.8 79 1.9 WSW 35 54 19 29 1014.9 1014.9 3.4
15/04:30pm 13.9 7.6 11.2 84 1.4 WSW 35 50 19 27 1014.6 1014.6 3.4
15/04:11pm 14.4 8.1 11.2 81 1.7 WSW 35 56 19 30 1014.6 1014.6 3.4
15/04:00pm 14.2 7.3 10.4 78 2.0 WSW 37 52 20 28 1014.5 1014.5 3.4
15/03:30pm 13.6 7.3 11.1 85 1.3 WSW 35 54 19 29 1014.2 1014.2 3.4
15/03:21pm 15.3 9.0 11.1 76 2.2 W 35 54 19 29 1014.2 1014.2 2.4
15/03:00pm 15.0 8.2 10.6 75 2.3 W 37 48 20 26 1014.1 1014.1 2.2
15/02:30pm 15.0 8.0 11.2 78 2.0 W 39 52 21 28 1013.9 1013.9 2.2
15/02:00pm 13.8 7.0 11.8 88 1.1 W 39 52 21 28 1013.8 1013.8 2.2
15/01:30pm 13.3 6.7 11.4 88 1.0 WSW 37 52 20 28 1013.8 1013.8 2.0
15/01:00pm 14.4 7.7 11.0 80 1.8 W 37 56 20 30 1013.8 1013.8 1.2
15/12:38pm 14.9 8.8 11.7 81 1.7 W 35 56 19 30 1013.9 1013.9 1.2
15/12:30pm 14.8 8.7 11.9 83 1.6 WNW 35 52 19 28 1013.9 1013.9 1.2
15/12:15pm 14.3 7.9 12.0 86 1.2 WNW 37 56 20 30 1014.0 1014.0 1.2
15/12:00pm 13.8 6.2 11.7 87 1.1 WNW 43 56 23 30 1013.9 1013.9 1.2
15/11:30am 14.1 8.0 11.8 86 1.2 WNW 35 56 19 30 1013.7 1013.7 1.2
15/11:00am 13.7 6.5 11.8 88 1.0 WNW 41 61 22 33 1013.8 1013.8 0.8
15/10:47am 14.3 9.2 12.0 86 1.2 WNW 30 48 16 26 1013.7 1013.7 0.6
15/10:30am 13.6 8.8 11.7 88 1.0 WNW 28 43 15 23 1013.7 1013.7 0.6
15/10:00am 13.9 8.2 11.1 83 1.5 WNW 32 48 17 26 1013.9 1013.9 0.2
15/09:31am 13.4 7.6 10.8 84 1.4 WNW 32 50 17 27 1013.9 1013.9 0.2
15/09:30am 13.5 8.0 10.7 83 1.5 WNW 30 46 16 25 1013.9 1013.9 0.2
15/09:20am 13.8 8.7 10.6 81 1.7 NW 28 46 15 25 1013.7 1013.7 0.0
15/09:00am 13.6 8.4 10.2 80 1.8 NW 28 43 15 23 1013.9 1013.9 2.2
15/08:30am 13.1 8.1 10.8 86 1.2 NW 28 46 15 25 1013.7 1013.7 2.2
15/08:28am 13.0 7.9 10.7 86 1.2 NW 28 46 15 25 1013.7 1013.7 2.2
15/08:00am 13.5 7.6 10.3 81 1.7 NW 32 46 17 25 1013.5 1013.5 2.0
15/07:40am 13.0 7.8 10.4 84 1.4 NW 28 50 15 27 1013.4 1013.4 2.0
15/07:30am 13.3 8.6 10.5 83 1.5 NW 26 41 14 22 1013.3 1013.3 2.0
15/07:00am 12.6 7.8 10.3 86 1.2 NW 26 39 14 21 1013.2 1013.2 2.0
15/06:30am 13.3 8.0 9.7 79 1.9 WNW 28 41 15 22 1013.2 1013.2 2.0
15/06:03am 13.6 8.2 9.5 76 2.1 NW 28 48 15 26 1013.0 1013.0 2.0
15/06:00am 13.6 8.1 9.3 75 2.2 NW 28 44 15 24 1013.1 1013.1 2.0
15/05:30am 13.8 8.3 9.0 73 2.4 WNW 28 44 15 24 1012.9 1012.9 2.0
15/05:00am 13.4 8.5 9.8 79 1.9 NW 26 43 14 23 1012.9 1012.9 2.0
15/04:37am 14.5 8.4 9.7 73 2.5 WNW 32 50 17 27 1012.6 1012.6 2.0
15/04:30am 14.9 7.8 9.7 71 2.7 W 37 56 20 30 1012.4 1012.4 2.0
15/04:00am 14.8 7.3 7.8 63 3.5 W 37 52 20 28 1012.5 1012.5 2.0
15/03:30am 14.6 7.8 9.2 70 2.8 W 35 50 19 27 1012.6 1012.6 1.8
15/03:00am 13.8 7.4 10.6 81 1.7 W 35 54 19 29 1013.0 1013.0 1.8
15/02:53am 14.4 8.3 10.4 77 2.1 W 33 52 18 28 1012.9 1012.9 1.8
15/02:30am 14.3 7.4 8.9 70 2.7 W 35 50 19 27 1013.2 1013.2 1.8
15/02:01am 13.0 6.2 10.7 86 1.2 W 37 56 20 30 1013.5 1013.5 1.8
15/02:00am 13.3 6.2 11.0 86 1.2 W 39 56 21 30 1013.6 1013.6 1.8
15/01:37am 14.6 8.3 9.0 69 2.9 WNW 32 52 17 28 1013.4 1013.4 1.8
15/01:30am 14.6 9.1 9.0 69 2.9 WNW 28 41 15 22 1013.4 1013.4 1.8
15/01:24am 14.6 8.6 8.8 68 3.0 WNW 30 48 16 26 1013.5 1013.5 1.8
15/01:00am 14.8 7.6 7.8 63 3.5 W 35 50 19 27 1013.4 1013.4 1.8
15/12:30am 14.7 6.7 7.5 62 3.6 W 39 52 21 28 1013.4 1013.4 1.8
15/12:01am 14.9 7.3 9.1 68 3.0 W 39 59 21 32 1013.5 1013.5 1.8
15/12:00am 14.8 7.5 8.7 67 3.1 W 37 54 20 29 1013.5 1013.5 1.8
 
Date/Time
EST
Temp
°C
App
Temp
°C
Dew
Point
°C
Rel
Hum
%
Delta-T
°C
Wind Press
QNH
hPa
Press
MSL
hPa
Rain since
9am
mm
Dir  Spd
km/h
Gust
km/h
Spd
kts
Gust
kts
14/11:33pm 14.5 7.3 9.3 71 2.7 W 37 56 20 30 1013.8 1013.8 1.8
14/11:30pm 14.5 6.9 9.1 70 2.8 W 39 56 21 30 1013.9 1013.9 1.8
14/11:20pm 14.8 8.2 8.7 67 3.1 W 33 54 18 29 1013.8 1013.8 1.8
14/11:00pm 14.5 8.1 9.3 71 2.7 W 33 43 18 23 1013.9 1013.9 1.8
14/10:30pm 13.9 6.6 8.9 72 2.5 W 37 56 20 30 1014.3 1014.3 1.8
14/10:00pm 14.9 7.1 8.2 64 3.4 W 39 57 21 31 1013.9 1013.9 1.8
14/09:30pm 14.5 8.3 10.1 75 2.3 WSW 33 52 18 28 1013.7 1013.7 1.8
14/09:26pm 14.7 8.2 10.5 76 2.2 WSW 35 54 19 29 1013.7 1013.7 1.8
14/09:00pm 14.8 6.7 8.5 66 3.2 W 41 56 22 30 1013.4 1013.4 1.8
14/08:44pm 14.3 8.0 9.7 74 2.4 W 33 56 18 30 1013.3 1013.3 1.8
14/08:30pm 14.6 8.4 10.0 74 2.4 W 33 44 18 24 1013.4 1013.4 1.8
14/08:02pm 13.9 6.2 10.1 78 2.0 WSW 41 65 22 35 1013.1 1013.1 1.8
14/08:00pm 13.9 6.2 10.1 78 2.0 W 41 65 22 35 1013.1 1013.1 1.8
14/07:36pm 14.5 8.8 9.7 73 2.5 W 30 48 16 26 1013.1 1013.1 1.8
14/07:30pm 14.4 8.7 9.8 74 2.4 WNW 30 44 16 24 1013.0 1013.0 1.8
14/07:00pm 15.0 7.3 8.7 66 3.2 W 39 57 21 31 1012.5 1012.5 1.8
14/06:46pm 15.0 6.9 8.7 66 3.2 W 41 59 22 32 1012.3 1012.3 1.8
14/06:30pm 15.0 7.4 8.9 67 3.1 W 39 52 21 28 1012.2 1012.2 1.8
14/06:05pm 15.4 6.9 8.4 63 3.6 W 43 61 23 33 1011.8 1011.7 1.8
14/06:00pm 15.3 6.4 7.8 61 3.8 W 44 61 24 33 1011.7 1011.6 1.8
14/05:30pm 15.2 6.4 8.2 63 3.5 W 44 61 24 33 1011.2 1011.1 1.8
14/05:00pm 14.7 7.6 10.9 78 2.0 W 39 57 21 31 1011.0 1010.9 1.8
14/04:30pm 14.2 6.7 11.0 81 1.7 W 41 63 22 34 1010.6 1010.5 1.6
14/04:01pm 14.6 8.3 12.3 86 1.3 W 37 56 20 30 1010.6 1010.5 1.6
14/04:00pm 14.6 7.8 12.1 85 1.4 W 39 56 21 30 1010.6 1010.5 1.6
14/03:30pm 14.7 7.6 12.2 85 1.4 W 41 59 22 32 1010.2 1010.1 1.6
14/03:04pm 14.8 7.5 11.6 81 1.7 W 41 63 22 34 1009.9 1009.8 1.6
14/03:00pm 15.0 8.2 12.1 83 1.6 W 39 56 21 30 1009.9 1009.8 1.6
14/02:30pm 13.9 5.8 10.7 81 1.7 W 44 65 24 35 1009.4 1009.3 1.4
14/02:00pm 14.5 7.2 11.5 82 1.6 W 41 61 22 33 1009.2 1009.1 1.0
14/01:30pm 16.2 7.8 10.9 71 2.8 W 46 69 25 37 1009.0 1008.9 0.8
14/01:03pm 16.3 9.8 11.7 74 2.5 WNW 37 56 20 30 1009.1 1009.0 0.8
14/01:00pm 16.2 9.7 11.8 75 2.4 WNW 37 54 20 29 1009.1 1009.0 0.8
14/12:40pm 16.0 9.0 11.4 74 2.5 WNW 39 57 21 31 1009.1 1009.0 0.8
14/12:30pm 15.4 8.3 11.0 75 2.4 WNW 39 52 21 28 1009.0 1008.9 0.8
14/12:00pm 15.4 8.3 10.8 74 2.5 WNW 39 57 21 31 1008.8 1008.7 0.8
14/11:30am 15.4 7.2 11.8 79 2.0 WNW 46 69 25 37 1008.5 1008.4 0.8
14/11:00am 14.9 8.2 13.4 91 0.8 WNW 41 59 22 32 1008.5 1008.4 0.6
14/10:30am 14.3 8.0 12.2 87 1.1 WNW 37 65 20 35 1008.2 1008.1 0.4
14/10:00am 14.7 8.7 12.2 85 1.4 WNW 35 59 19 32 1008.0 1007.9 0.2
14/09:30am 14.5 8.8 11.3 81 1.7 NW 32 54 17 29 1008.1 1008.0 0.0
14/09:00am 14.1 8.3 10.7 80 1.8 NW 32 50 17 27 1007.9 1007.8 0.2
14/08:30am 14.4 7.9 10.4 77 2.1 NW 35 56 19 30 1007.5 1007.4 0.2
14/08:00am 13.6 7.2 10.6 82 1.6 NW 35 57 19 31 1007.4 1007.3 0.2
14/07:30am 14.6 8.5 9.6 72 2.6 NW 32 56 17 30 1006.5 1006.4 0.2
14/07:00am 14.2 7.4 9.4 73 2.5 NW 35 54 19 29 1006.3 1006.2 0.2
14/06:30am 14.2 7.8 9.4 73 2.5 NW 33 56 18 30 1006.1 1006.0 0.2
14/06:00am 14.1 8.3 9.5 74 2.4 NW 30 54 16 29 1006.0 1005.9 0.2
14/05:30am 14.5 7.9 10.1 75 2.3 NW 35 54 19 29 1005.9 1005.8 0.2
14/05:00am 14.7 9.1 10.3 75 2.3 NW 30 48 16 26 1005.7 1005.6 0.2
14/04:30am 14.9 8.9 10.1 73 2.5 NW 32 50 17 27 1005.7 1005.6 0.2
14/04:04am 15.0 9.6 9.4 69 2.9 NW 28 54 15 29 1005.5 1005.4 0.2
14/04:00am 15.0 9.6 9.6 70 2.8 NW 28 41 15 22 1005.4 1005.3 0.2
14/03:30am 14.6 9.4 10.4 76 2.2 NW 28 44 15 24 1005.3 1005.2 0.2
14/03:04am 14.8 8.9 11.0 78 2.0 WNW 33 52 18 28 1005.4 1005.3 0.2
14/03:00am 14.8 8.4 10.8 77 2.1 WNW 35 52 19 28 1005.5 1005.4 0.2
14/02:30am 14.9 7.5 12.4 85 1.4 W 43 63 23 34 1005.6 1005.5 0.2
14/02:00am 15.4 10.3 13.2 87 1.2 WNW 32 52 17 28 1005.5 1005.4 0.0
14/01:39am 16.4 10.9 12.4 77 2.2 W 33 54 18 29 1005.6 1005.5 0.0
14/01:30am 17.3 11.2 4.9 44 5.9 NW 26 41 14 22 1005.5 1005.4 0.0
14/01:00am 17.8 9.2 4.4 41 6.4 NW 39 59 21 32 1005.1 1005.0 0.0
14/12:55am 17.8 9.6 4.7 42 6.3 NNW 37 59 20 32 1005.2 1005.1 0.0
14/12:39am 18.5 11.4 1.5 32 7.7 NNW 28 46 15 25 1004.7 1004.6 0.0
14/12:30am 18.5 11.5 1.9 33 7.6 NNW 28 43 15 23 1004.7 1004.6 0.0
14/12:01am 18.2 11.2 2.1 34 7.3 NNW 28 46 15 25 1005.4 1005.3 0.0
14/12:00am 18.2 11.6 2.1 34 7.4 NNW 26 46 14 25 1005.2 1005.1 0.0
 
Date/Time
EST
Temp
°C
App
Temp
°C
Dew
Point
°C
Rel
Hum
%
Delta-T
°C
Wind Press
QNH
hPa
Press
MSL
hPa
Rain since
9am
mm
Dir  Spd
km/h
Gust
km/h
Spd
kts
Gust
kts
13/11:48pm 18.0 11.2 3.1 37 6.9 NNW 28 46 15 25 1005.7 1005.6 0.0
13/11:30pm 18.5 10.1 1.5 32 7.7 NNW 35 50 19 27 1005.3 1005.2 0.0

Other formats

Comma delimited format used in spreadsheet applications
http://www.bom.gov.au/fwo/IDV60801/IDV60801.94842.axf

JavaScript Object Notation format (JSON) in row-major order
http://www.bom.gov.au/fwo/IDV60801/IDV60801.94842.json

Data quality

Most of these data are generated automatically and are frequently updated. Quality checks on data are not normally performed. It is possible for incorrect values to appear. Refer to information at About Latest Weather Observations and please check the disclaimer before using these data.